sensor_id;sensor_type;location;lat;lon;timestamp;P1;durP1;ratioP1;P2;durP2;ratioP2
35959;SDS011;22043;50.970;7.192;2024-02-21T00:01:46;16.35;;;3.65;;
35959;SDS011;22043;50.970;7.192;2024-02-21T00:04:12;7.03;;;2.78;;
35959;SDS011;22043;50.970;7.192;2024-02-21T00:06:37;10.15;;;2.60;;
35959;SDS011;22043;50.970;7.192;2024-02-21T00:09:02;8.73;;;2.85;;
35959;SDS011;22043;50.970;7.192;2024-02-21T00:11:28;8.30;;;2.40;;
35959;SDS011;22043;50.970;7.192;2024-02-21T00:13:53;8.32;;;2.45;;
35959;SDS011;22043;50.970;7.192;2024-02-21T00:16:19;11.35;;;2.95;;
35959;SDS011;22043;50.970;7.192;2024-02-21T00:18:44;9.93;;;2.33;;
35959;SDS011;22043;50.970;7.192;2024-02-21T00:21:10;8.90;;;2.78;;
35959;SDS011;22043;50.970;7.192;2024-02-21T00:23:40;10.60;;;2.78;;
35959;SDS011;22043;50.970;7.192;2024-02-21T00:26:06;10.57;;;2.72;;
35959;SDS011;22043;50.970;7.192;2024-02-21T00:28:32;8.85;;;2.30;;
35959;SDS011;22043;50.970;7.192;2024-02-21T00:30:58;8.88;;;3.10;;
35959;SDS011;22043;50.970;7.192;2024-02-21T00:33:23;11.05;;;2.92;;
35959;SDS011;22043;50.970;7.192;2024-02-21T00:35:48;10.48;;;3.33;;
35959;SDS011;22043;50.970;7.192;2024-02-21T00:38:14;9.10;;;2.75;;
35959;SDS011;22043;50.970;7.192;2024-02-21T00:40:39;7.60;;;2.70;;
35959;SDS011;22043;50.970;7.192;2024-02-21T00:43:05;10.05;;;3.50;;
35959;SDS011;22043;50.970;7.192;2024-02-21T00:45:30;12.82;;;2.88;;
35959;SDS011;22043;50.970;7.192;2024-02-21T00:47:56;11.40;;;2.83;;
35959;SDS011;22043;50.970;7.192;2024-02-21T00:50:21;9.95;;;2.92;;
35959;SDS011;22043;50.970;7.192;2024-02-21T00:52:46;9.98;;;2.63;;
35959;SDS011;22043;50.970;7.192;2024-02-21T00:55:12;10.55;;;2.97;;
35959;SDS011;22043;50.970;7.192;2024-02-21T00:57:37;7.93;;;3.50;;
35959;SDS011;22043;50.970;7.192;2024-02-21T01:00:03;10.40;;;3.20;;
35959;SDS011;22043;50.970;7.192;2024-02-21T01:02:29;9.88;;;2.70;;
35959;SDS011;22043;50.970;7.192;2024-02-21T01:04:57;10.93;;;3.20;;
35959;SDS011;22043;50.970;7.192;2024-02-21T01:07:22;10.30;;;3.40;;
35959;SDS011;22043;50.970;7.192;2024-02-21T01:09:48;10.73;;;3.45;;
35959;SDS011;22043;50.970;7.192;2024-02-21T01:12:13;9.00;;;3.35;;
35959;SDS011;22043;50.970;7.192;2024-02-21T01:14:39;11.40;;;2.53;;
35959;SDS011;22043;50.970;7.192;2024-02-21T01:17:04;11.63;;;3.33;;
35959;SDS011;22043;50.970;7.192;2024-02-21T01:19:31;9.90;;;3.05;;
35959;SDS011;22043;50.970;7.192;2024-02-21T01:21:56;8.75;;;3.22;;
35959;SDS011;22043;50.970;7.192;2024-02-21T01:24:22;7.63;;;2.97;;
35959;SDS011;22043;50.970;7.192;2024-02-21T01:26:49;14.25;;;3.45;;
35959;SDS011;22043;50.970;7.192;2024-02-21T01:29:14;8.27;;;3.10;;
35959;SDS011;22043;50.970;7.192;2024-02-21T01:31:40;13.30;;;2.85;;
35959;SDS011;22043;50.970;7.192;2024-02-21T01:34:05;12.20;;;3.50;;
35959;SDS011;22043;50.970;7.192;2024-02-21T01:36:31;8.10;;;3.25;;
35959;SDS011;22043;50.970;7.192;2024-02-21T01:38:56;8.30;;;3.47;;
35959;SDS011;22043;50.970;7.192;2024-02-21T01:41:21;12.15;;;3.25;;
35959;SDS011;22043;50.970;7.192;2024-02-21T01:43:47;6.78;;;2.65;;
35959;SDS011;22043;50.970;7.192;2024-02-21T01:46:12;8.82;;;3.63;;
35959;SDS011;22043;50.970;7.192;2024-02-21T01:48:38;7.63;;;2.83;;
35959;SDS011;22043;50.970;7.192;2024-02-21T01:51:03;7.82;;;3.25;;
35959;SDS011;22043;50.970;7.192;2024-02-21T01:53:30;11.95;;;2.92;;
35959;SDS011;22043;50.970;7.192;2024-02-21T01:55:56;12.98;;;3.58;;
35959;SDS011;22043;50.970;7.192;2024-02-21T01:58:21;8.02;;;2.53;;
35959;SDS011;22043;50.970;7.192;2024-02-21T02:00:47;5.95;;;2.95;;
35959;SDS011;22043;50.970;7.192;2024-02-21T02:03:13;9.35;;;3.17;;
35959;SDS011;22043;50.970;7.192;2024-02-21T02:05:48;7.00;;;2.80;;
35959;SDS011;22043;50.970;7.192;2024-02-21T02:08:14;13.18;;;2.55;;
35959;SDS011;22043;50.970;7.192;2024-02-21T02:10:40;11.98;;;3.22;;
35959;SDS011;22043;50.970;7.192;2024-02-21T02:13:06;10.40;;;2.88;;
35959;SDS011;22043;50.970;7.192;2024-02-21T02:15:41;11.95;;;3.33;;
35959;SDS011;22043;50.970;7.192;2024-02-21T02:18:08;9.77;;;3.15;;
35959;SDS011;22043;50.970;7.192;2024-02-21T02:20:34;15.27;;;2.75;;
35959;SDS011;22043;50.970;7.192;2024-02-21T02:23:01;9.30;;;2.88;;
35959;SDS011;22043;50.970;7.192;2024-02-21T02:25:36;20.70;;;4.13;;
35959;SDS011;22043;50.970;7.192;2024-02-21T02:28:02;9.90;;;2.78;;
35959;SDS011;22043;50.970;7.192;2024-02-21T02:30:37;7.57;;;2.22;;
35959;SDS011;22043;50.970;7.192;2024-02-21T02:33:05;7.80;;;3.47;;
35959;SDS011;22043;50.970;7.192;2024-02-21T02:35:31;8.98;;;3.22;;
35959;SDS011;22043;50.970;7.192;2024-02-21T02:37:57;9.05;;;2.65;;
35959;SDS011;22043;50.970;7.192;2024-02-21T02:40:22;8.00;;;2.45;;
35959;SDS011;22043;50.970;7.192;2024-02-21T02:42:48;9.52;;;3.45;;
35959;SDS011;22043;50.970;7.192;2024-02-21T02:45:17;7.13;;;2.63;;
35959;SDS011;22043;50.970;7.192;2024-02-21T02:47:46;10.95;;;2.97;;
35959;SDS011;22043;50.970;7.192;2024-02-21T02:50:12;9.23;;;2.58;;
35959;SDS011;22043;50.970;7.192;2024-02-21T02:52:38;5.53;;;2.78;;
35959;SDS011;22043;50.970;7.192;2024-02-21T02:55:03;8.80;;;3.10;;
35959;SDS011;22043;50.970;7.192;2024-02-21T02:57:30;9.38;;;3.50;;
35959;SDS011;22043;50.970;7.192;2024-02-21T02:59:55;9.02;;;3.00;;
35959;SDS011;22043;50.970;7.192;2024-02-21T03:02:21;9.52;;;2.67;;
35959;SDS011;22043;50.970;7.192;2024-02-21T03:04:46;6.07;;;2.70;;
35959;SDS011;22043;50.970;7.192;2024-02-21T03:07:12;10.55;;;2.40;;
35959;SDS011;22043;50.970;7.192;2024-02-21T03:09:37;11.50;;;3.17;;
35959;SDS011;22043;50.970;7.192;2024-02-21T03:12:03;8.98;;;3.28;;
35959;SDS011;22043;50.970;7.192;2024-02-21T03:14:29;7.15;;;2.67;;
35959;SDS011;22043;50.970;7.192;2024-02-21T03:16:55;8.15;;;2.33;;
35959;SDS011;22043;50.970;7.192;2024-02-21T03:19:21;10.23;;;2.67;;
35959;SDS011;22043;50.970;7.192;2024-02-21T03:21:47;9.95;;;2.53;;
35959;SDS011;22043;50.970;7.192;2024-02-21T03:24:13;8.75;;;2.58;;
35959;SDS011;22043;50.970;7.192;2024-02-21T03:26:38;7.28;;;2.50;;
35959;SDS011;22043;50.970;7.192;2024-02-21T03:29:05;11.20;;;3.10;;
35959;SDS011;22043;50.970;7.192;2024-02-21T03:31:30;10.20;;;2.33;;
35959;SDS011;22043;50.970;7.192;2024-02-21T03:33:56;8.57;;;2.65;;
35959;SDS011;22043;50.970;7.192;2024-02-21T03:36:21;8.65;;;2.60;;
35959;SDS011;22043;50.970;7.192;2024-02-21T03:38:46;5.68;;;2.22;;
35959;SDS011;22043;50.970;7.192;2024-02-21T03:41:13;10.70;;;2.38;;
35959;SDS011;22043;50.970;7.192;2024-02-21T03:43:38;7.47;;;2.35;;
35959;SDS011;22043;50.970;7.192;2024-02-21T03:46:04;8.05;;;2.22;;
35959;SDS011;22043;50.970;7.192;2024-02-21T03:48:30;10.27;;;2.83;;
35959;SDS011;22043;50.970;7.192;2024-02-21T03:50:55;7.57;;;2.47;;
35959;SDS011;22043;50.970;7.192;2024-02-21T03:53:20;9.77;;;2.53;;
35959;SDS011;22043;50.970;7.192;2024-02-21T03:55:46;8.75;;;2.42;;
35959;SDS011;22043;50.970;7.192;2024-02-21T03:58:11;10.02;;;3.63;;
35959;SDS011;22043;50.970;7.192;2024-02-21T04:00:37;10.00;;;2.17;;
35959;SDS011;22043;50.970;7.192;2024-02-21T04:03:02;8.52;;;2.90;;
35959;SDS011;22043;50.970;7.192;2024-02-21T04:05:28;9.23;;;2.78;;
35959;SDS011;22043;50.970;7.192;2024-02-21T04:07:53;13.32;;;2.13;;
35959;SDS011;22043;50.970;7.192;2024-02-21T04:10:19;10.68;;;3.65;;
35959;SDS011;22043;50.970;7.192;2024-02-21T04:12:44;8.55;;;2.88;;
35959;SDS011;22043;50.970;7.192;2024-02-21T04:15:10;7.78;;;2.80;;
35959;SDS011;22043;50.970;7.192;2024-02-21T04:17:36;11.18;;;2.72;;
35959;SDS011;22043;50.970;7.192;2024-02-21T04:20:04;8.45;;;3.17;;
35959;SDS011;22043;50.970;7.192;2024-02-21T04:22:31;9.90;;;2.90;;
35959;SDS011;22043;50.970;7.192;2024-02-21T04:24:59;11.13;;;2.63;;
35959;SDS011;22043;50.970;7.192;2024-02-21T04:27:25;6.25;;;2.33;;
35959;SDS011;22043;50.970;7.192;2024-02-21T04:29:50;9.57;;;2.33;;
35959;SDS011;22043;50.970;7.192;2024-02-21T04:32:16;7.90;;;2.08;;
35959;SDS011;22043;50.970;7.192;2024-02-21T04:34:41;15.32;;;3.25;;
35959;SDS011;22043;50.970;7.192;2024-02-21T04:37:06;9.88;;;2.60;;
35959;SDS011;22043;50.970;7.192;2024-02-21T04:39:32;7.85;;;2.42;;
35959;SDS011;22043;50.970;7.192;2024-02-21T04:41:57;6.82;;;2.13;;
35959;SDS011;22043;50.970;7.192;2024-02-21T04:44:23;7.40;;;2.78;;
35959;SDS011;22043;50.970;7.192;2024-02-21T04:46:48;7.32;;;2.80;;
35959;SDS011;22043;50.970;7.192;2024-02-21T04:49:14;9.27;;;3.15;;
35959;SDS011;22043;50.970;7.192;2024-02-21T04:51:40;8.20;;;2.45;;
35959;SDS011;22043;50.970;7.192;2024-02-21T04:54:06;8.18;;;3.13;;
35959;SDS011;22043;50.970;7.192;2024-02-21T04:56:31;9.70;;;2.50;;
35959;SDS011;22043;50.970;7.192;2024-02-21T04:58:57;8.88;;;2.65;;
35959;SDS011;22043;50.970;7.192;2024-02-21T05:01:22;7.90;;;2.53;;
35959;SDS011;22043;50.970;7.192;2024-02-21T05:03:47;7.80;;;2.58;;
35959;SDS011;22043;50.970;7.192;2024-02-21T05:06:13;8.73;;;2.97;;
35959;SDS011;22043;50.970;7.192;2024-02-21T05:08:38;9.10;;;2.30;;
35959;SDS011;22043;50.970;7.192;2024-02-21T05:11:04;22.42;;;3.53;;
35959;SDS011;22043;50.970;7.192;2024-02-21T05:13:30;8.70;;;3.03;;
35959;SDS011;22043;50.970;7.192;2024-02-21T05:15:55;8.55;;;2.70;;
35959;SDS011;22043;50.970;7.192;2024-02-21T05:18:21;6.70;;;2.28;;
35959;SDS011;22043;50.970;7.192;2024-02-21T05:20:46;9.40;;;2.25;;
35959;SDS011;22043;50.970;7.192;2024-02-21T05:23:11;6.68;;;2.22;;
35959;SDS011;22043;50.970;7.192;2024-02-21T05:25:37;6.00;;;2.05;;
35959;SDS011;22043;50.970;7.192;2024-02-21T05:28:02;9.18;;;2.05;;
35959;SDS011;22043;50.970;7.192;2024-02-21T05:30:28;7.40;;;2.40;;
35959;SDS011;22043;50.970;7.192;2024-02-21T05:32:54;10.50;;;2.80;;
35959;SDS011;22043;50.970;7.192;2024-02-21T05:35:19;11.00;;;2.63;;
35959;SDS011;22043;50.970;7.192;2024-02-21T05:37:50;12.18;;;2.95;;
35959;SDS011;22043;50.970;7.192;2024-02-21T05:40:17;5.17;;;2.17;;
35959;SDS011;22043;50.970;7.192;2024-02-21T05:42:43;8.43;;;2.25;;
35959;SDS011;22043;50.970;7.192;2024-02-21T05:45:08;8.80;;;2.55;;
35959;SDS011;22043;50.970;7.192;2024-02-21T05:47:34;8.80;;;2.45;;
35959;SDS011;22043;50.970;7.192;2024-02-21T05:49:59;10.05;;;2.70;;
35959;SDS011;22043;50.970;7.192;2024-02-21T05:52:25;10.68;;;2.00;;
35959;SDS011;22043;50.970;7.192;2024-02-21T05:54:50;8.18;;;2.10;;
35959;SDS011;22043;50.970;7.192;2024-02-21T05:57:17;8.02;;;1.90;;
35959;SDS011;22043;50.970;7.192;2024-02-21T05:59:43;8.45;;;2.35;;
35959;SDS011;22043;50.970;7.192;2024-02-21T06:02:08;9.00;;;2.72;;
35959;SDS011;22043;50.970;7.192;2024-02-21T06:04:34;7.03;;;2.13;;
35959;SDS011;22043;50.970;7.192;2024-02-21T06:07:00;9.23;;;2.75;;
35959;SDS011;22043;50.970;7.192;2024-02-21T06:09:25;8.70;;;2.38;;
35959;SDS011;22043;50.970;7.192;2024-02-21T06:11:51;9.55;;;2.58;;
35959;SDS011;22043;50.970;7.192;2024-02-21T06:14:16;9.55;;;2.33;;
35959;SDS011;22043;50.970;7.192;2024-02-21T06:16:43;11.43;;;2.28;;
35959;SDS011;22043;50.970;7.192;2024-02-21T06:19:08;11.50;;;2.40;;
35959;SDS011;22043;50.970;7.192;2024-02-21T06:21:34;8.88;;;2.60;;
35959;SDS011;22043;50.970;7.192;2024-02-21T06:23:59;7.15;;;2.55;;
35959;SDS011;22043;50.970;7.192;2024-02-21T06:26:25;9.48;;;2.78;;
35959;SDS011;22043;50.970;7.192;2024-02-21T06:28:50;7.22;;;2.15;;
35959;SDS011;22043;50.970;7.192;2024-02-21T06:31:15;11.07;;;2.67;;
35959;SDS011;22043;50.970;7.192;2024-02-21T06:33:41;7.63;;;1.88;;
35959;SDS011;22043;50.970;7.192;2024-02-21T06:36:07;9.20;;;2.10;;
35959;SDS011;22043;50.970;7.192;2024-02-21T06:38:32;16.38;;;2.70;;
35959;SDS011;22043;50.970;7.192;2024-02-21T06:40:59;7.30;;;2.00;;
35959;SDS011;22043;50.970;7.192;2024-02-21T06:43:25;8.18;;;2.33;;
35959;SDS011;22043;50.970;7.192;2024-02-21T06:45:51;6.32;;;1.42;;
35959;SDS011;22043;50.970;7.192;2024-02-21T06:48:17;5.97;;;1.90;;
35959;SDS011;22043;50.970;7.192;2024-02-21T06:50:43;7.38;;;2.22;;
35959;SDS011;22043;50.970;7.192;2024-02-21T06:53:08;6.30;;;2.60;;
35959;SDS011;22043;50.970;7.192;2024-02-21T06:55:34;7.65;;;2.10;;
35959;SDS011;22043;50.970;7.192;2024-02-21T06:57:59;4.72;;;2.35;;
35959;SDS011;22043;50.970;7.192;2024-02-21T07:00:25;9.18;;;1.92;;
35959;SDS011;22043;50.970;7.192;2024-02-21T07:02:51;13.23;;;2.80;;
35959;SDS011;22043;50.970;7.192;2024-02-21T07:05:17;9.45;;;2.38;;
35959;SDS011;22043;50.970;7.192;2024-02-21T07:07:42;9.48;;;2.55;;
35959;SDS011;22043;50.970;7.192;2024-02-21T07:10:07;11.30;;;3.03;;
35959;SDS011;22043;50.970;7.192;2024-02-21T07:12:33;10.45;;;1.75;;
35959;SDS011;22043;50.970;7.192;2024-02-21T07:15:00;9.02;;;2.20;;
35959;SDS011;22043;50.970;7.192;2024-02-21T07:17:25;8.00;;;2.42;;
35959;SDS011;22043;50.970;7.192;2024-02-21T07:19:51;7.78;;;1.70;;
35959;SDS011;22043;50.970;7.192;2024-02-21T07:22:16;8.95;;;1.85;;
35959;SDS011;22043;50.970;7.192;2024-02-21T07:24:41;11.95;;;2.10;;
35959;SDS011;22043;50.970;7.192;2024-02-21T07:27:07;13.07;;;2.30;;
35959;SDS011;22043;50.970;7.192;2024-02-21T07:29:32;7.55;;;2.00;;
35959;SDS011;22043;50.970;7.192;2024-02-21T07:31:58;8.38;;;2.00;;
35959;SDS011;22043;50.970;7.192;2024-02-21T07:34:23;18.40;;;2.10;;
35959;SDS011;22043;50.970;7.192;2024-02-21T07:36:48;20.70;;;3.15;;
35959;SDS011;22043;50.970;7.192;2024-02-21T07:39:14;9.10;;;2.55;;
35959;SDS011;22043;50.970;7.192;2024-02-21T07:41:39;11.93;;;2.53;;
35959;SDS011;22043;50.970;7.192;2024-02-21T07:44:06;18.45;;;2.45;;
35959;SDS011;22043;50.970;7.192;2024-02-21T07:46:31;16.20;;;2.20;;
35959;SDS011;22043;50.970;7.192;2024-02-21T07:48:57;7.72;;;2.92;;
35959;SDS011;22043;50.970;7.192;2024-02-21T07:51:22;7.93;;;2.70;;
35959;SDS011;22043;50.970;7.192;2024-02-21T07:53:48;12.98;;;2.22;;
35959;SDS011;22043;50.970;7.192;2024-02-21T07:56:14;8.02;;;1.90;;
35959;SDS011;22043;50.970;7.192;2024-02-21T07:58:40;5.63;;;1.63;;
35959;SDS011;22043;50.970;7.192;2024-02-21T08:01:08;10.98;;;2.20;;
35959;SDS011;22043;50.970;7.192;2024-02-21T08:03:35;9.57;;;2.20;;
35959;SDS011;22043;50.970;7.192;2024-02-21T08:06:01;12.25;;;2.50;;
35959;SDS011;22043;50.970;7.192;2024-02-21T08:08:28;10.32;;;2.63;;
35959;SDS011;22043;50.970;7.192;2024-02-21T08:10:53;11.93;;;2.35;;
35959;SDS011;22043;50.970;7.192;2024-02-21T08:13:18;8.00;;;2.15;;
35959;SDS011;22043;50.970;7.192;2024-02-21T08:15:44;11.98;;;2.30;;
35959;SDS011;22043;50.970;7.192;2024-02-21T08:18:09;9.60;;;2.28;;
35959;SDS011;22043;50.970;7.192;2024-02-21T08:20:35;6.22;;;2.78;;
35959;SDS011;22043;50.970;7.192;2024-02-21T08:23:00;8.38;;;2.80;;
35959;SDS011;22043;50.970;7.192;2024-02-21T08:25:26;10.18;;;2.20;;
35959;SDS011;22043;50.970;7.192;2024-02-21T08:27:53;8.50;;;2.25;;
35959;SDS011;22043;50.970;7.192;2024-02-21T08:30:22;9.05;;;2.20;;
35959;SDS011;22043;50.970;7.192;2024-02-21T08:32:47;10.02;;;2.38;;
35959;SDS011;22043;50.970;7.192;2024-02-21T08:35:13;9.85;;;2.35;;
35959;SDS011;22043;50.970;7.192;2024-02-21T08:37:38;9.30;;;3.25;;
35959;SDS011;22043;50.970;7.192;2024-02-21T08:40:04;10.60;;;2.60;;
35959;SDS011;22043;50.970;7.192;2024-02-21T08:42:34;13.25;;;3.17;;
35959;SDS011;22043;50.970;7.192;2024-02-21T08:45:00;8.80;;;2.67;;
35959;SDS011;22043;50.970;7.192;2024-02-21T08:47:26;10.38;;;2.63;;
35959;SDS011;22043;50.970;7.192;2024-02-21T08:49:52;12.35;;;2.42;;
35959;SDS011;22043;50.970;7.192;2024-02-21T08:52:17;8.77;;;2.50;;
35959;SDS011;22043;50.970;7.192;2024-02-21T08:54:43;6.38;;;2.40;;
35959;SDS011;22043;50.970;7.192;2024-02-21T08:57:09;13.85;;;2.55;;
35959;SDS011;22043;50.970;7.192;2024-02-21T08:59:34;8.00;;;2.10;;
35959;SDS011;22043;50.970;7.192;2024-02-21T09:02:00;11.85;;;2.50;;
35959;SDS011;22043;50.970;7.192;2024-02-21T09:04:25;14.45;;;4.03;;
35959;SDS011;22043;50.970;7.192;2024-02-21T09:06:50;10.35;;;2.40;;
35959;SDS011;22043;50.970;7.192;2024-02-21T09:09:17;7.20;;;2.95;;
35959;SDS011;22043;50.970;7.192;2024-02-21T09:11:43;7.88;;;1.95;;
35959;SDS011;22043;50.970;7.192;2024-02-21T09:14:08;13.90;;;2.92;;
35959;SDS011;22043;50.970;7.192;2024-02-21T09:16:33;11.48;;;3.08;;
35959;SDS011;22043;50.970;7.192;2024-02-21T09:18:59;9.82;;;2.65;;
35959;SDS011;22043;50.970;7.192;2024-02-21T09:21:25;10.57;;;2.75;;
35959;SDS011;22043;50.970;7.192;2024-02-21T09:23:50;7.55;;;2.33;;
35959;SDS011;22043;50.970;7.192;2024-02-21T09:26:16;12.45;;;2.40;;
35959;SDS011;22043;50.970;7.192;2024-02-21T09:28:45;12.13;;;2.10;;
35959;SDS011;22043;50.970;7.192;2024-02-21T09:31:10;7.60;;;2.15;;
35959;SDS011;22043;50.970;7.192;2024-02-21T09:33:36;12.68;;;2.90;;
35959;SDS011;22043;50.970;7.192;2024-02-21T09:36:02;8.75;;;2.47;;
35959;SDS011;22043;50.970;7.192;2024-02-21T09:38:28;10.45;;;2.45;;
35959;SDS011;22043;50.970;7.192;2024-02-21T09:40:58;7.32;;;2.00;;
35959;SDS011;22043;50.970;7.192;2024-02-21T09:43:25;6.82;;;1.75;;
35959;SDS011;22043;50.970;7.192;2024-02-21T09:45:51;11.85;;;2.78;;
35959;SDS011;22043;50.970;7.192;2024-02-21T09:48:26;5.68;;;2.17;;
35959;SDS011;22043;50.970;7.192;2024-02-21T09:51:11;7.82;;;1.80;;
35959;SDS011;22043;50.970;7.192;2024-02-21T09:53:40;8.57;;;1.77;;
35959;SDS011;22043;50.970;7.192;2024-02-21T09:56:07;10.38;;;2.40;;
35959;SDS011;22043;50.970;7.192;2024-02-21T09:58:33;10.02;;;2.50;;
35959;SDS011;22043;50.970;7.192;2024-02-21T10:00:59;8.40;;;2.15;;
35959;SDS011;22043;50.970;7.192;2024-02-21T10:03:25;8.00;;;1.98;;
35959;SDS011;22043;50.970;7.192;2024-02-21T10:05:51;9.65;;;1.70;;
35959;SDS011;22043;50.970;7.192;2024-02-21T10:08:16;8.43;;;3.15;;
35959;SDS011;22043;50.970;7.192;2024-02-21T10:10:42;7.80;;;2.20;;
35959;SDS011;22043;50.970;7.192;2024-02-21T10:13:09;7.30;;;2.13;;
35959;SDS011;22043;50.970;7.192;2024-02-21T10:15:35;6.13;;;2.25;;
35959;SDS011;22043;50.970;7.192;2024-02-21T10:18:01;8.75;;;2.13;;
35959;SDS011;22043;50.970;7.192;2024-02-21T10:20:28;8.57;;;2.00;;
35959;SDS011;22043;50.970;7.192;2024-02-21T10:23:03;9.05;;;2.20;;
35959;SDS011;22043;50.970;7.192;2024-02-21T10:25:38;7.13;;;2.08;;
35959;SDS011;22043;50.970;7.192;2024-02-21T10:30:32;10.77;;;2.63;;
35959;SDS011;22043;50.970;7.192;2024-02-21T10:32:57;6.40;;;1.83;;
35959;SDS011;22043;50.970;7.192;2024-02-21T10:35:26;6.90;;;2.13;;
35959;SDS011;22043;50.970;7.192;2024-02-21T10:37:54;7.93;;;1.50;;
35959;SDS011;22043;50.970;7.192;2024-02-21T10:40:24;8.63;;;2.73;;
35959;SDS011;22043;50.970;7.192;2024-02-21T10:42:57;5.22;;;2.08;;
35959;SDS011;22043;50.970;7.192;2024-02-21T10:45:30;16.83;;;3.78;;
35959;SDS011;22043;50.970;7.192;2024-02-21T10:48:01;7.55;;;2.05;;
35959;SDS011;22043;50.970;7.192;2024-02-21T10:50:36;5.72;;;1.80;;
35959;SDS011;22043;50.970;7.192;2024-02-21T10:56:16;8.18;;;1.85;;
35959;SDS011;22043;50.970;7.192;2024-02-21T10:58:45;6.50;;;2.10;;
35959;SDS011;22043;50.970;7.192;2024-02-21T11:01:12;7.15;;;2.00;;
35959;SDS011;22043;50.970;7.192;2024-02-21T11:03:40;9.82;;;1.92;;
35959;SDS011;22043;50.970;7.192;2024-02-21T11:06:07;15.00;;;2.33;;
35959;SDS011;22043;50.970;7.192;2024-02-21T11:08:33;6.75;;;1.20;;
35959;SDS011;22043;50.970;7.192;2024-02-21T11:10:59;6.20;;;2.10;;
35959;SDS011;22043;50.970;7.192;2024-02-21T11:13:32;7.25;;;2.20;;
35959;SDS011;22043;50.970;7.192;2024-02-21T11:16:09;8.88;;;1.60;;
35959;SDS011;22043;50.970;7.192;2024-02-21T11:18:36;10.85;;;1.85;;
35959;SDS011;22043;50.970;7.192;2024-02-21T11:21:02;5.65;;;1.70;;
35959;SDS011;22043;50.970;7.192;2024-02-21T11:23:30;7.53;;;1.67;;
35959;SDS011;22043;50.970;7.192;2024-02-21T11:26:29;7.88;;;2.42;;
35959;SDS011;22043;50.970;7.192;2024-02-21T11:28:57;7.47;;;1.95;;
35959;SDS011;22043;50.970;7.192;2024-02-21T11:31:26;6.25;;;1.40;;
35959;SDS011;22043;50.970;7.192;2024-02-21T11:33:54;7.40;;;1.77;;
35959;SDS011;22043;50.970;7.192;2024-02-21T11:36:26;7.68;;;1.70;;
35959;SDS011;22043;50.970;7.192;2024-02-21T11:38:52;9.02;;;2.33;;
35959;SDS011;22043;50.970;7.192;2024-02-21T11:41:20;8.38;;;2.25;;
35959;SDS011;22043;50.970;7.192;2024-02-21T11:43:46;7.00;;;1.50;;
35959;SDS011;22043;50.970;7.192;2024-02-21T11:46:13;9.10;;;2.90;;
35959;SDS011;22043;50.970;7.192;2024-02-21T11:48:39;7.05;;;2.45;;
35959;SDS011;22043;50.970;7.192;2024-02-21T11:51:06;5.88;;;2.33;;
35959;SDS011;22043;50.970;7.192;2024-02-21T11:53:31;4.40;;;1.90;;
35959;SDS011;22043;50.970;7.192;2024-02-21T11:55:58;4.32;;;1.80;;
35959;SDS011;22043;50.970;7.192;2024-02-21T11:58:24;4.00;;;1.40;;
35959;SDS011;22043;50.970;7.192;2024-02-21T12:00:50;5.82;;;2.33;;
35959;SDS011;22043;50.970;7.192;2024-02-21T12:03:15;5.78;;;1.85;;
35959;SDS011;22043;50.970;7.192;2024-02-21T12:05:41;7.78;;;1.83;;
35959;SDS011;22043;50.970;7.192;2024-02-21T12:08:07;5.30;;;1.40;;
35959;SDS011;22043;50.970;7.192;2024-02-21T12:10:33;4.57;;;1.50;;
35959;SDS011;22043;50.970;7.192;2024-02-21T12:13:07;7.28;;;1.85;;
35959;SDS011;22043;50.970;7.192;2024-02-21T12:15:33;7.82;;;1.98;;
35959;SDS011;22043;50.970;7.192;2024-02-21T12:17:59;7.68;;;1.75;;
35959;SDS011;22043;50.970;7.192;2024-02-21T12:20:25;8.88;;;2.00;;
35959;SDS011;22043;50.970;7.192;2024-02-21T12:22:50;8.02;;;2.38;;
35959;SDS011;22043;50.970;7.192;2024-02-21T12:25:17;6.45;;;1.73;;
35959;SDS011;22043;50.970;7.192;2024-02-21T12:27:51;5.18;;;1.27;;
35959;SDS011;22043;50.970;7.192;2024-02-21T12:30:17;4.90;;;1.75;;
35959;SDS011;22043;50.970;7.192;2024-02-21T12:32:43;5.78;;;1.65;;
35959;SDS011;22043;50.970;7.192;2024-02-21T12:35:08;7.13;;;2.25;;
35959;SDS011;22043;50.970;7.192;2024-02-21T12:37:34;8.80;;;1.75;;
35959;SDS011;22043;50.970;7.192;2024-02-21T12:40:00;11.00;;;1.80;;
35959;SDS011;22043;50.970;7.192;2024-02-21T12:42:25;5.72;;;1.63;;
35959;SDS011;22043;50.970;7.192;2024-02-21T12:44:51;8.90;;;1.60;;
35959;SDS011;22043;50.970;7.192;2024-02-21T12:47:18;5.05;;;1.88;;
35959;SDS011;22043;50.970;7.192;2024-02-21T12:49:45;7.57;;;1.40;;
35959;SDS011;22043;50.970;7.192;2024-02-21T12:52:10;5.35;;;1.42;;
35959;SDS011;22043;50.970;7.192;2024-02-21T12:54:36;7.40;;;1.15;;
35959;SDS011;22043;50.970;7.192;2024-02-21T12:57:01;4.45;;;1.65;;
35959;SDS011;22043;50.970;7.192;2024-02-21T12:59:28;3.33;;;1.35;;
35959;SDS011;22043;50.970;7.192;2024-02-21T13:01:54;5.05;;;1.45;;
35959;SDS011;22043;50.970;7.192;2024-02-21T13:04:19;4.35;;;1.25;;
35959;SDS011;22043;50.970;7.192;2024-02-21T13:06:46;5.90;;;1.65;;
35959;SDS011;22043;50.970;7.192;2024-02-21T13:09:12;4.72;;;1.27;;
35959;SDS011;22043;50.970;7.192;2024-02-21T13:11:38;6.43;;;1.63;;
35959;SDS011;22043;50.970;7.192;2024-02-21T13:14:05;5.72;;;1.35;;
35959;SDS011;22043;50.970;7.192;2024-02-21T13:16:31;4.10;;;1.58;;
35959;SDS011;22043;50.970;7.192;2024-02-21T13:18:56;9.85;;;2.47;;
35959;SDS011;22043;50.970;7.192;2024-02-21T13:21:22;7.40;;;1.52;;
35959;SDS011;22043;50.970;7.192;2024-02-21T13:23:47;5.55;;;1.65;;
35959;SDS011;22043;50.970;7.192;2024-02-21T13:26:13;7.22;;;2.30;;
35959;SDS011;22043;50.970;7.192;2024-02-21T13:28:39;8.57;;;1.90;;
35959;SDS011;22043;50.970;7.192;2024-02-21T13:31:04;4.30;;;1.55;;
35959;SDS011;22043;50.970;7.192;2024-02-21T13:33:30;4.68;;;1.58;;
35959;SDS011;22043;50.970;7.192;2024-02-21T13:35:55;6.50;;;1.50;;
35959;SDS011;22043;50.970;7.192;2024-02-21T13:38:20;8.85;;;1.98;;
35959;SDS011;22043;50.970;7.192;2024-02-21T13:40:46;5.53;;;1.23;;
35959;SDS011;22043;50.970;7.192;2024-02-21T13:43:11;5.63;;;1.45;;
35959;SDS011;22043;50.970;7.192;2024-02-21T13:45:38;7.75;;;1.67;;
35959;SDS011;22043;50.970;7.192;2024-02-21T13:48:03;8.75;;;1.73;;
35959;SDS011;22043;50.970;7.192;2024-02-21T13:50:31;3.65;;;1.60;;
35959;SDS011;22043;50.970;7.192;2024-02-21T13:52:57;4.80;;;1.52;;
35959;SDS011;22043;50.970;7.192;2024-02-21T13:55:22;8.10;;;1.38;;
35959;SDS011;22043;50.970;7.192;2024-02-21T13:57:51;4.03;;;1.60;;
35959;SDS011;22043;50.970;7.192;2024-02-21T14:00:16;4.30;;;1.52;;
35959;SDS011;22043;50.970;7.192;2024-02-21T14:02:43;6.57;;;1.73;;
35959;SDS011;22043;50.970;7.192;2024-02-21T14:05:09;4.18;;;1.30;;
35959;SDS011;22043;50.970;7.192;2024-02-21T14:07:35;7.60;;;1.55;;
35959;SDS011;22043;50.970;7.192;2024-02-21T14:10:00;4.30;;;1.20;;
35959;SDS011;22043;50.970;7.192;2024-02-21T14:12:25;5.32;;;1.55;;
35959;SDS011;22043;50.970;7.192;2024-02-21T14:14:51;10.15;;;1.60;;
35959;SDS011;22043;50.970;7.192;2024-02-21T14:17:17;2.42;;;1.40;;
35959;SDS011;22043;50.970;7.192;2024-02-21T14:19:43;10.25;;;1.40;;
35959;SDS011;22043;50.970;7.192;2024-02-21T14:22:08;7.18;;;1.35;;
35959;SDS011;22043;50.970;7.192;2024-02-21T14:24:36;6.57;;;1.83;;
35959;SDS011;22043;50.970;7.192;2024-02-21T14:27:01;8.35;;;2.00;;
35959;SDS011;22043;50.970;7.192;2024-02-21T14:29:28;4.60;;;1.30;;
35959;SDS011;22043;50.970;7.192;2024-02-21T14:31:54;7.05;;;1.75;;
35959;SDS011;22043;50.970;7.192;2024-02-21T14:34:19;5.22;;;2.00;;
35959;SDS011;22043;50.970;7.192;2024-02-21T14:36:45;5.07;;;1.77;;
35959;SDS011;22043;50.970;7.192;2024-02-21T14:39:10;4.65;;;1.23;;
35959;SDS011;22043;50.970;7.192;2024-02-21T14:41:35;10.45;;;2.38;;
35959;SDS011;22043;50.970;7.192;2024-02-21T14:44:01;6.13;;;1.40;;